sensor_id;sensor_type;location;lat;lon;timestamp;pressure;altitude;pressure_sealevel;temperature;humidity
63281;BME280;49406;51.044;3.766;2022-09-27T00:00:40;100088.85;;;10.08;100.00
63281;BME280;49406;51.044;3.766;2022-09-27T00:03:15;100104.73;;;10.04;100.00
63281;BME280;49406;51.044;3.766;2022-09-27T00:05:59;100107.34;;;10.05;100.00
63281;BME280;49406;51.044;3.766;2022-09-27T00:08:34;100113.80;;;10.04;100.00
63281;BME280;49406;51.044;3.766;2022-09-27T00:11:14;100111.56;;;9.91;100.00
63281;BME280;49406;51.044;3.766;2022-09-27T00:13:50;100110.87;;;9.92;100.00
63281;BME280;49406;51.044;3.766;2022-09-27T00:16:27;100109.48;;;9.81;100.00
63281;BME280;49406;51.044;3.766;2022-09-27T00:19:03;100110.52;;;9.72;100.00
63281;BME280;49406;51.044;3.766;2022-09-27T00:21:38;100119.23;;;9.65;100.00
63281;BME280;49406;51.044;3.766;2022-09-27T00:24:15;100122.91;;;9.61;100.00
63281;BME280;49406;51.044;3.766;2022-09-27T00:26:50;100119.42;;;9.58;100.00
63281;BME280;49406;51.044;3.766;2022-09-27T00:29:25;100116.63;;;9.57;100.00
63281;BME280;49406;51.044;3.766;2022-09-27T00:32:00;100117.67;;;9.58;100.00
63281;BME280;49406;51.044;3.766;2022-09-27T00:34:34;100126.91;;;9.57;100.00
63281;BME280;49406;51.044;3.766;2022-09-27T00:37:09;100136.15;;;9.57;100.00
63281;BME280;49406;51.044;3.766;2022-09-27T00:39:44;100133.02;;;9.57;100.00
63281;BME280;49406;51.044;3.766;2022-09-27T00:42:18;100124.64;;;9.56;100.00
63281;BME280;49406;51.044;3.766;2022-09-27T00:45:03;100121.34;;;9.57;100.00
63281;BME280;49406;51.044;3.766;2022-09-27T00:47:44;100124.66;;;9.60;100.00
63281;BME280;49406;51.044;3.766;2022-09-27T00:50:25;100127.80;;;9.62;100.00
63281;BME280;49406;51.044;3.766;2022-09-27T00:53:07;100129.55;;;9.60;100.00
63281;BME280;49406;51.044;3.766;2022-09-27T00:55:45;100128.67;;;9.61;100.00
63281;BME280;49406;51.044;3.766;2022-09-27T00:58:26;100125.54;;;9.62;100.00
63281;BME280;49406;51.044;3.766;2022-09-27T01:01:04;100127.97;;;9.65;100.00
63281;BME280;49406;51.044;3.766;2022-09-27T01:14:05;100134.94;;;9.55;100.00
63281;BME280;49406;51.044;3.766;2022-09-27T01:16:46;100142.09;;;9.49;100.00
63281;BME280;49406;51.044;3.766;2022-09-27T01:19:42;100141.91;;;9.47;100.00
63281;BME280;49406;51.044;3.766;2022-09-27T01:22:22;100139.48;;;9.43;100.00
63281;BME280;49406;51.044;3.766;2022-09-27T01:25:08;100139.65;;;9.43;100.00
63281;BME280;49406;51.044;3.766;2022-09-27T01:28:10;100139.45;;;9.39;100.00
63281;BME280;49406;51.044;3.766;2022-09-27T01:30:49;100143.98;;;9.33;100.00
63281;BME280;49406;51.044;3.766;2022-09-27T01:33:45;100150.78;;;9.30;100.00
63281;BME280;49406;51.044;3.766;2022-09-27T01:36:29;100156.54;;;9.29;100.00
63281;BME280;49406;51.044;3.766;2022-09-27T01:39:25;100155.48;;;9.29;100.00
63281;BME280;49406;51.044;3.766;2022-09-27T01:42:09;100159.15;;;9.29;100.00
63281;BME280;49406;51.044;3.766;2022-09-27T01:44:49;100159.15;;;9.31;100.00
63281;BME280;49406;51.044;3.766;2022-09-27T01:47:30;100155.14;;;9.33;100.00
63281;BME280;49406;51.044;3.766;2022-09-27T01:50:12;100151.83;;;9.35;100.00
63281;BME280;49406;51.044;3.766;2022-09-27T01:52:52;100148.34;;;9.38;100.00
63281;BME280;49406;51.044;3.766;2022-09-27T01:55:33;100143.80;;;9.39;100.00
63281;BME280;49406;51.044;3.766;2022-09-27T01:58:13;100137.70;;;9.40;100.00
63281;BME280;49406;51.044;3.766;2022-09-27T02:00:51;100142.06;;;9.38;100.00
63281;BME280;49406;51.044;3.766;2022-09-27T02:03:32;100140.30;;;9.35;100.00
63281;BME280;49406;51.044;3.766;2022-09-27T02:06:13;100142.59;;;9.40;100.00
63281;BME280;49406;51.044;3.766;2022-09-27T02:08:51;100149.95;;;9.43;100.00
63281;BME280;49406;51.044;3.766;2022-09-27T02:11:27;100149.59;;;9.45;100.00
63281;BME280;49406;51.044;3.766;2022-09-27T02:14:06;100151.69;;;9.46;100.00
63281;BME280;49406;51.044;3.766;2022-09-27T02:16:47;100154.13;;;9.53;100.00
63281;BME280;49406;51.044;3.766;2022-09-27T02:19:33;100152.73;;;9.55;100.00
63281;BME280;49406;51.044;3.766;2022-09-27T02:22:16;100154.13;;;9.53;100.00
63281;BME280;49406;51.044;3.766;2022-09-27T02:24:57;100153.95;;;9.42;100.00
63281;BME280;49406;51.044;3.766;2022-09-27T02:27:37;100153.26;;;9.51;100.00
63281;BME280;49406;51.044;3.766;2022-09-27T02:30:15;100152.04;;;9.54;100.00
63281;BME280;49406;51.044;3.766;2022-09-27T02:32:50;100148.75;;;9.61;100.00
63281;BME280;49406;51.044;3.766;2022-09-27T02:35:27;100148.73;;;9.64;100.00
63281;BME280;49406;51.044;3.766;2022-09-27T02:38:04;100143.50;;;9.66;100.00
63281;BME280;49406;51.044;3.766;2022-09-27T02:40:44;100140.53;;;9.64;100.00
63281;BME280;49406;51.044;3.766;2022-09-27T02:43:26;100139.14;;;9.64;100.00
63281;BME280;49406;51.044;3.766;2022-09-27T02:46:13;100130.40;;;9.56;100.00
63281;BME280;49406;51.044;3.766;2022-09-27T02:48:57;100128.65;;;9.51;100.00
63281;BME280;49406;51.044;3.766;2022-09-27T02:51:45;100127.96;;;9.57;100.00
63281;BME280;49406;51.044;3.766;2022-09-27T02:54:23;100125.88;;;9.61;100.00
63281;BME280;49406;51.044;3.766;2022-09-27T02:57:06;100130.77;;;9.60;100.00
63281;BME280;49406;51.044;3.766;2022-09-27T02:59:52;100123.27;;;9.58;100.00
63281;BME280;49406;51.044;3.766;2022-09-27T03:02:34;100117.67;;;9.59;100.00
63281;BME280;49406;51.044;3.766;2022-09-27T03:05:12;100116.63;;;9.63;100.00
63281;BME280;49406;51.044;3.766;2022-09-27T03:07:47;100110.17;;;9.62;100.00
63281;BME280;49406;51.044;3.766;2022-09-27T03:10:25;100113.83;;;9.49;100.00
63281;BME280;49406;51.044;3.766;2022-09-27T03:13:00;100112.59;;;9.39;100.00
63281;BME280;49406;51.044;3.766;2022-09-27T03:15:35;100115.75;;;9.45;100.00
63281;BME280;49406;51.044;3.766;2022-09-27T03:18:10;100110.51;;;9.47;100.00
63281;BME280;49406;51.044;3.766;2022-09-27T03:20:44;100108.06;;;9.48;100.00
63281;BME280;49406;51.044;3.766;2022-09-27T03:23:19;100111.73;;;9.51;100.00
63281;BME280;49406;51.044;3.766;2022-09-27T03:25:53;100114.86;;;9.51;100.00
63281;BME280;49406;51.044;3.766;2022-09-27T03:28:28;100101.27;;;9.50;100.00
63281;BME280;49406;51.044;3.766;2022-09-27T03:31:02;100094.45;;;9.50;100.00
63281;BME280;49406;51.044;3.766;2022-09-27T03:33:37;100101.95;;;9.41;100.00
63281;BME280;49406;51.044;3.766;2022-09-27T03:36:11;100096.18;;;9.36;100.00
63281;BME280;49406;51.044;3.766;2022-09-27T03:38:46;100094.08;;;9.39;100.00
63281;BME280;49406;51.044;3.766;2022-09-27T03:41:20;100092.00;;;9.40;100.00
63281;BME280;49406;51.044;3.766;2022-09-27T03:43:55;100092.00;;;9.40;100.00
63281;BME280;49406;51.044;3.766;2022-09-27T03:46:30;100093.05;;;9.40;100.00
63281;BME280;49406;51.044;3.766;2022-09-27T03:49:04;100100.03;;;9.40;100.00
63281;BME280;49406;51.044;3.766;2022-09-27T03:51:38;100104.91;;;9.40;100.00
63281;BME280;49406;51.044;3.766;2022-09-27T03:54:13;100105.77;;;9.37;100.00
63281;BME280;49406;51.044;3.766;2022-09-27T03:56:48;100106.65;;;9.35;100.00
63281;BME280;49406;51.044;3.766;2022-09-27T03:59:22;100107.17;;;9.34;100.00
63281;BME280;49406;51.044;3.766;2022-09-27T04:01:57;100105.08;;;9.33;100.00
63281;BME280;49406;51.044;3.766;2022-09-27T04:04:31;100094.61;;;9.29;100.00
63281;BME280;49406;51.044;3.766;2022-09-27T04:07:06;100098.27;;;9.22;100.00
63281;BME280;49406;51.044;3.766;2022-09-27T04:09:42;100094.21;;;9.03;100.00
63281;BME280;49406;51.044;3.766;2022-09-27T04:12:18;100091.41;;;8.97;100.00
63281;BME280;49406;51.044;3.766;2022-09-27T04:14:52;100088.08;;;8.92;100.00
63281;BME280;49406;51.044;3.766;2022-09-27T04:17:27;100081.95;;;8.84;100.00
63281;BME280;49406;51.044;3.766;2022-09-27T04:20:02;100086.65;;;8.78;100.00
63281;BME280;49406;51.044;3.766;2022-09-27T04:22:39;100082.08;;;8.70;100.00
63281;BME280;49406;51.044;3.766;2022-09-27T04:25:16;100082.42;;;8.65;100.00
63281;BME280;49406;51.044;3.766;2022-09-27T04:27:51;100095.81;;;8.60;100.00
63281;BME280;49406;51.044;3.766;2022-09-27T04:30:26;100095.95;;;8.56;100.00
63281;BME280;49406;51.044;3.766;2022-09-27T04:33:01;100085.66;;;8.52;100.00
63281;BME280;49406;51.044;3.766;2022-09-27T04:35:36;100084.96;;;8.49;100.00
63281;BME280;49406;51.044;3.766;2022-09-27T04:38:28;100080.37;;;8.37;100.00
63281;BME280;49406;51.044;3.766;2022-09-27T04:41:02;100080.88;;;8.36;100.00
63281;BME280;49406;51.044;3.766;2022-09-27T04:43:37;100079.32;;;8.38;100.00
63281;BME280;49406;51.044;3.766;2022-09-27T04:46:11;100077.58;;;8.37;100.00
63281;BME280;49406;51.044;3.766;2022-09-27T04:48:46;100073.56;;;8.35;100.00
63281;BME280;49406;51.044;3.766;2022-09-27T04:51:21;100071.48;;;8.35;100.00
63281;BME280;49406;51.044;3.766;2022-09-27T04:53:57;100073.22;;;8.35;100.00
63281;BME280;49406;51.044;3.766;2022-09-27T04:56:31;100070.77;;;8.36;100.00
63281;BME280;49406;51.044;3.766;2022-09-27T04:59:06;100069.05;;;8.38;100.00
63281;BME280;49406;51.044;3.766;2022-09-27T05:01:40;100066.30;;;8.41;100.00
63281;BME280;49406;51.044;3.766;2022-09-27T05:04:15;100071.19;;;8.43;100.00
63281;BME280;49406;51.044;3.766;2022-09-27T05:06:49;100065.60;;;8.42;100.00
63281;BME280;49406;51.044;3.766;2022-09-27T05:09:23;100061.70;;;8.32;100.00
63281;BME280;49406;51.044;3.766;2022-09-27T05:11:58;100068.02;;;8.39;100.00
63281;BME280;49406;51.044;3.766;2022-09-27T05:14:32;100063.52;;;8.41;100.00
63281;BME280;49406;51.044;3.766;2022-09-27T05:17:07;100065.79;;;8.41;100.00
63281;BME280;49406;51.044;3.766;2022-09-27T05:19:42;100065.79;;;8.41;100.00
63281;BME280;49406;51.044;3.766;2022-09-27T05:22:17;100065.24;;;8.39;100.00
63281;BME280;49406;51.044;3.766;2022-09-27T05:24:52;100064.34;;;8.36;100.00
63281;BME280;49406;51.044;3.766;2022-09-27T05:27:27;100062.00;;;8.26;100.00
63281;BME280;49406;51.044;3.766;2022-09-27T05:30:03;100061.08;;;8.20;100.00
63281;BME280;49406;51.044;3.766;2022-09-27T05:32:43;100059.02;;;8.22;100.00
63281;BME280;49406;51.044;3.766;2022-09-27T05:35:19;100061.09;;;8.23;100.00
63281;BME280;49406;51.044;3.766;2022-09-27T05:37:54;100061.13;;;8.23;100.00
63281;BME280;49406;51.044;3.766;2022-09-27T05:40:29;100062.35;;;8.24;100.00
63281;BME280;49406;51.044;3.766;2022-09-27T05:43:03;100069.64;;;8.23;100.00
63281;BME280;49406;51.044;3.766;2022-09-27T05:45:38;100071.70;;;8.18;100.00
63281;BME280;49406;51.044;3.766;2022-09-27T05:48:13;100071.10;;;8.04;100.00
63281;BME280;49406;51.044;3.766;2022-09-27T05:50:47;100080.02;;;8.07;100.00
63281;BME280;49406;51.044;3.766;2022-09-27T05:53:21;100085.08;;;8.11;100.00
63281;BME280;49406;51.044;3.766;2022-09-27T05:55:59;100088.05;;;8.13;100.00
63281;BME280;49406;51.044;3.766;2022-09-27T05:58:33;100094.52;;;8.18;100.00
63281;BME280;49406;51.044;3.766;2022-09-27T06:01:08;100098.88;;;8.21;100.00
63281;BME280;49406;51.044;3.766;2022-09-27T06:03:43;100099.21;;;8.18;100.00
63281;BME280;49406;51.044;3.766;2022-09-27T06:06:19;100097.82;;;8.19;100.00
63281;BME280;49406;51.044;3.766;2022-09-27T06:08:55;100089.17;;;8.26;100.00
63281;BME280;49406;51.044;3.766;2022-09-27T06:11:30;100093.73;;;8.32;100.00
63281;BME280;49406;51.044;3.766;2022-09-27T06:14:04;100092.05;;;8.38;100.00
63281;BME280;49406;51.044;3.766;2022-09-27T06:16:39;100092.63;;;8.48;100.00
63281;BME280;49406;51.044;3.766;2022-09-27T06:19:13;100088.11;;;8.54;100.00
63281;BME280;49406;51.044;3.766;2022-09-27T06:21:50;100084.10;;;8.53;100.00
63281;BME280;49406;51.044;3.766;2022-09-27T06:24:25;100085.02;;;8.63;100.00
63281;BME280;49406;51.044;3.766;2022-09-27T06:26:59;100089.91;;;8.69;100.00
63281;BME280;49406;51.044;3.766;2022-09-27T06:29:34;100093.09;;;8.74;100.00
63281;BME280;49406;51.044;3.766;2022-09-27T06:32:09;100091.88;;;8.78;100.00
63281;BME280;49406;51.044;3.766;2022-09-27T06:34:44;100088.39;;;8.81;100.00
63281;BME280;49406;51.044;3.766;2022-09-27T06:37:18;100083.67;;;8.75;100.00
63281;BME280;49406;51.044;3.766;2022-09-27T06:39:53;100083.85;;;8.76;100.00
63281;BME280;49406;51.044;3.766;2022-09-27T06:42:28;100084.91;;;8.82;100.00
63281;BME280;49406;51.044;3.766;2022-09-27T06:45:03;100081.96;;;8.86;100.00
63281;BME280;49406;51.044;3.766;2022-09-27T06:47:38;100081.10;;;8.90;100.00
63281;BME280;49406;51.044;3.766;2022-09-27T06:50:13;100083.56;;;8.93;100.00
63281;BME280;49406;51.044;3.766;2022-09-27T06:52:50;100087.92;;;8.95;100.00
63281;BME280;49406;51.044;3.766;2022-09-27T06:55:25;100095.73;;;8.87;100.00
63281;BME280;49406;51.044;3.766;2022-09-27T06:58:00;100093.67;;;8.95;100.00
63281;BME280;49406;51.044;3.766;2022-09-27T07:00:53;100094.55;;;8.97;100.00
63281;BME280;49406;51.044;3.766;2022-09-27T07:03:28;100102.39;;;9.01;100.00
63281;BME280;49406;51.044;3.766;2022-09-27T07:06:06;100106.23;;;9.03;100.00
63281;BME280;49406;51.044;3.766;2022-09-27T07:08:41;100112.70;;;9.06;100.00
63281;BME280;49406;51.044;3.766;2022-09-27T07:11:15;100113.58;;;9.08;100.00
63281;BME280;49406;51.044;3.766;2022-09-27T07:13:50;100112.85;;;8.97;100.00
63281;BME280;49406;51.044;3.766;2022-09-27T07:16:25;100112.69;;;9.03;100.00
63281;BME280;49406;51.044;3.766;2022-09-27T07:19:00;100112.20;;;9.09;100.00
63281;BME280;49406;51.044;3.766;2022-09-27T07:21:34;100115.85;;;9.10;100.00
63281;BME280;49406;51.044;3.766;2022-09-27T07:24:08;100120.56;;;9.12;100.00
63281;BME280;49406;51.044;3.766;2022-09-27T07:26:43;100124.06;;;9.14;100.00
63281;BME280;49406;51.044;3.766;2022-09-27T07:29:19;100124.39;;;9.12;100.00
63281;BME280;49406;51.044;3.766;2022-09-27T07:31:53;100137.61;;;9.01;100.00
63281;BME280;49406;51.044;3.766;2022-09-27T07:34:27;100137.09;;;9.02;100.00
63281;BME280;49406;51.044;3.766;2022-09-27T07:37:02;100142.31;;;9.00;100.00
63281;BME280;49406;51.044;3.766;2022-09-27T07:39:37;100139.17;;;9.00;100.00
63281;BME280;49406;51.044;3.766;2022-09-27T07:42:12;100136.57;;;9.02;100.00
63281;BME280;49406;51.044;3.766;2022-09-27T07:44:46;100129.25;;;9.03;100.00
63281;BME280;49406;51.044;3.766;2022-09-27T07:47:20;100126.80;;;9.00;100.00
63281;BME280;49406;51.044;3.766;2022-09-27T07:49:56;100120.34;;;8.94;100.00
63281;BME280;49406;51.044;3.766;2022-09-27T07:52:30;100124.90;;;9.05;100.00
63281;BME280;49406;51.044;3.766;2022-09-27T07:55:14;100132.42;;;9.15;100.00
63281;BME280;49406;51.044;3.766;2022-09-27T07:57:49;100129.13;;;9.23;100.00
63281;BME280;49406;51.044;3.766;2022-09-27T08:00:24;100130.72;;;9.29;100.00
63281;BME280;49406;51.044;3.766;2022-09-27T08:02:59;100135.43;;;9.34;100.00
63281;BME280;49406;51.044;3.766;2022-09-27T08:05:36;100132.29;;;9.30;100.00
63281;BME280;49406;51.044;3.766;2022-09-27T08:08:11;100134.58;;;9.41;100.00
63281;BME280;49406;51.044;3.766;2022-09-27T08:10:46;100135.63;;;9.49;100.00
63281;BME280;49406;51.044;3.766;2022-09-27T08:13:20;100139.65;;;9.49;100.00
63281;BME280;49406;51.044;3.766;2022-09-27T08:15:55;100141.19;;;9.37;100.00
63281;BME280;49406;51.044;3.766;2022-09-27T08:18:34;100142.06;;;9.38;100.00
63281;BME280;49406;51.044;3.766;2022-09-27T08:21:08;100147.84;;;9.44;100.00
63281;BME280;49406;51.044;3.766;2022-09-27T08:23:42;100148.89;;;9.48;100.00
63281;BME280;49406;51.044;3.766;2022-09-27T08:26:17;100152.38;;;9.52;100.00
63281;BME280;49406;51.044;3.766;2022-09-27T08:28:51;100155.02;;;9.58;100.00
63281;BME280;49406;51.044;3.766;2022-09-27T08:31:26;100155.54;;;9.64;100.00
63281;BME280;49406;51.044;3.766;2022-09-27T08:34:00;100156.24;;;9.63;100.00
63281;BME280;49406;51.044;3.766;2022-09-27T08:36:35;100158.00;;;9.79;100.00
63281;BME280;49406;51.044;3.766;2022-09-27T08:39:09;100160.09;;;9.91;100.00
63281;BME280;49406;51.044;3.766;2022-09-27T08:41:49;100160.79;;;10.02;100.00
63281;BME280;49406;51.044;3.766;2022-09-27T08:44:29;100161.14;;;10.00;100.00
63281;BME280;49406;51.044;3.766;2022-09-27T08:47:15;100166.55;;;10.18;100.00
63281;BME280;49406;51.044;3.766;2022-09-27T08:49:53;100168.48;;;10.34;100.00
63281;BME280;49406;51.044;3.766;2022-09-27T08:52:32;100168.27;;;10.50;100.00
63281;BME280;49406;51.044;3.766;2022-09-27T08:55:19;100166.67;;;10.58;100.00
63281;BME280;49406;51.044;3.766;2022-09-27T08:57:56;100166.63;;;10.75;100.00
63281;BME280;49406;51.044;3.766;2022-09-27T09:00:31;100163.80;;;10.83;100.00
63281;BME280;49406;51.044;3.766;2022-09-27T09:03:07;100166.96;;;10.79;100.00
63281;BME280;49406;51.044;3.766;2022-09-27T09:05:42;100163.92;;;10.95;100.00
63281;BME280;49406;51.044;3.766;2022-09-27T09:08:32;100160.89;;;11.07;100.00
63281;BME280;49406;51.044;3.766;2022-09-27T09:11:17;100151.27;;;11.08;100.00
63281;BME280;49406;51.044;3.766;2022-09-27T09:14:16;100148.13;;;11.06;100.00
63281;BME280;49406;51.044;3.766;2022-09-27T09:16:58;100144.21;;;11.20;100.00
63281;BME280;49406;51.044;3.766;2022-09-27T09:19:46;100149.19;;;11.36;100.00
63281;BME280;49406;51.044;3.766;2022-09-27T09:22:36;100147.61;;;11.63;100.00
63281;BME280;49406;51.044;3.766;2022-09-27T09:25:23;100147.77;;;11.93;99.82
63281;BME280;49406;51.044;3.766;2022-09-27T09:28:11;100147.98;;;12.26;99.33
63281;BME280;49406;51.044;3.766;2022-09-27T09:30:59;100149.47;;;12.52;99.01
63281;BME280;49406;51.044;3.766;2022-09-27T09:33:38;100144.39;;;12.97;100.00
63281;BME280;49406;51.044;3.766;2022-09-27T09:36:22;100145.91;;;13.42;98.19
63281;BME280;49406;51.044;3.766;2022-09-27T09:39:03;100138.49;;;13.68;90.78
63281;BME280;49406;51.044;3.766;2022-09-27T09:41:42;100140.93;;;13.81;87.03
63281;BME280;49406;51.044;3.766;2022-09-27T09:44:22;100138.80;;;14.02;84.82
63281;BME280;49406;51.044;3.766;2022-09-27T09:47:01;100140.90;;;14.03;82.33
63281;BME280;49406;51.044;3.766;2022-09-27T09:49:41;100137.91;;;13.82;79.53
63281;BME280;49406;51.044;3.766;2022-09-27T09:52:19;100144.71;;;13.74;83.02
63281;BME280;49406;51.044;3.766;2022-09-27T09:54:59;100140.65;;;13.53;79.82
63281;BME280;49406;51.044;3.766;2022-09-27T09:57:38;100138.03;;;13.27;75.12
63281;BME280;49406;51.044;3.766;2022-09-27T10:00:16;100138.27;;;12.95;72.40
63281;BME280;49406;51.044;3.766;2022-09-27T10:02:53;100137.17;;;12.69;71.96
63281;BME280;49406;51.044;3.766;2022-09-27T10:05:28;100137.00;;;12.54;72.07
63281;BME280;49406;51.044;3.766;2022-09-27T10:08:06;100140.20;;;12.50;76.87
63281;BME280;49406;51.044;3.766;2022-09-27T10:10:44;100138.89;;;12.41;72.48
63281;BME280;49406;51.044;3.766;2022-09-27T10:13:20;100138.98;;;12.33;72.34
63281;BME280;49406;51.044;3.766;2022-09-27T10:16:00;100144.14;;;12.23;74.62
63281;BME280;49406;51.044;3.766;2022-09-27T10:18:37;100157.95;;;12.11;78.71
63281;BME280;49406;51.044;3.766;2022-09-27T10:21:16;100156.08;;;11.81;78.55
63281;BME280;49406;51.044;3.766;2022-09-27T10:24:09;100165.50;;;11.59;81.94
63281;BME280;49406;51.044;3.766;2022-09-27T10:26:45;100157.98;;;11.27;85.54
63281;BME280;49406;51.044;3.766;2022-09-27T10:29:31;100157.29;;;10.96;89.18
63281;BME280;49406;51.044;3.766;2022-09-27T10:32:20;100150.47;;;10.91;91.37
63281;BME280;49406;51.044;3.766;2022-09-27T10:34:56;100142.08;;;10.91;92.27
63281;BME280;49406;51.044;3.766;2022-09-27T10:37:51;100142.42;;;10.96;92.78
63281;BME280;49406;51.044;3.766;2022-09-27T10:40:32;100137.36;;;11.26;94.18
63281;BME280;49406;51.044;3.766;2022-09-27T10:43:25;100137.12;;;11.61;93.59
63281;BME280;49406;51.044;3.766;2022-09-27T10:46:14;100138.39;;;12.02;85.38
63281;BME280;49406;51.044;3.766;2022-09-27T10:49:08;100138.27;;;12.50;90.28
63281;BME280;49406;51.044;3.766;2022-09-27T10:51:48;100136.60;;;13.01;84.86
63281;BME280;49406;51.044;3.766;2022-09-27T10:54:25;100136.66;;;13.50;86.28
63281;BME280;49406;51.044;3.766;2022-09-27T10:57:02;100135.67;;;14.00;80.72
63281;BME280;49406;51.044;3.766;2022-09-27T10:59:41;100133.17;;;14.42;81.82
63281;BME280;49406;51.044;3.766;2022-09-27T11:02:20;100122.39;;;14.98;82.35
63281;BME280;49406;51.044;3.766;2022-09-27T11:05:11;100122.57;;;15.54;79.03
63281;BME280;49406;51.044;3.766;2022-09-27T11:07:51;100119.16;;;16.07;76.87
63281;BME280;49406;51.044;3.766;2022-09-27T11:10:27;100115.02;;;16.49;76.38
63281;BME280;49406;51.044;3.766;2022-09-27T11:13:13;100112.05;;;16.80;73.51
63281;BME280;49406;51.044;3.766;2022-09-27T11:15:50;100111.25;;;17.14;70.75
63281;BME280;49406;51.044;3.766;2022-09-27T11:18:32;100110.75;;;17.24;65.80
63281;BME280;49406;51.044;3.766;2022-09-27T11:21:20;100105.92;;;17.14;63.02
63281;BME280;49406;51.044;3.766;2022-09-27T11:24:07;100106.25;;;16.74;61.11
63281;BME280;49406;51.044;3.766;2022-09-27T11:26:52;100102.09;;;16.64;63.90
63281;BME280;49406;51.044;3.766;2022-09-27T11:29:34;100097.85;;;16.64;61.91
63281;BME280;49406;51.044;3.766;2022-09-27T11:32:29;100095.98;;;16.68;62.84
63281;BME280;49406;51.044;3.766;2022-09-27T11:35:24;100093.09;;;16.95;62.92
63281;BME280;49406;51.044;3.766;2022-09-27T11:38:15;100095.60;;;17.17;61.18
63281;BME280;49406;51.044;3.766;2022-09-27T11:41:08;100090.88;;;17.32;61.55
63281;BME280;49406;51.044;3.766;2022-09-27T11:43:59;100082.13;;;17.35;54.82
63281;BME280;49406;51.044;3.766;2022-09-27T11:46:37;100084.98;;;17.24;54.02
63281;BME280;49406;51.044;3.766;2022-09-27T11:49:35;100082.77;;;17.32;53.86
63281;BME280;49406;51.044;3.766;2022-09-27T11:52:25;100083.02;;;17.12;47.34
63281;BME280;49406;51.044;3.766;2022-09-27T11:55:13;100092.89;;;16.59;46.93
63281;BME280;49406;51.044;3.766;2022-09-27T11:57:55;100089.54;;;15.93;47.69
63281;BME280;49406;51.044;3.766;2022-09-27T12:00:43;100084.05;;;15.58;51.28
63281;BME280;49406;51.044;3.766;2022-09-27T12:03:48;100083.80;;;15.31;54.32
63281;BME280;49406;51.044;3.766;2022-09-27T12:06:34;100084.06;;;15.05;57.31
63281;BME280;49406;51.044;3.766;2022-09-27T12:09:13;100084.13;;;14.86;60.62
63281;BME280;49406;51.044;3.766;2022-09-27T12:11:53;100093.29;;;14.59;62.26
63281;BME280;49406;51.044;3.766;2022-09-27T12:14:36;100096.48;;;14.29;63.83
63281;BME280;49406;51.044;3.766;2022-09-27T12:17:16;100093.39;;;14.07;65.21
63281;BME280;49406;51.044;3.766;2022-09-27T12:19:54;100087.96;;;13.96;66.32
63281;BME280;49406;51.044;3.766;2022-09-27T12:22:34;100083.62;;;13.83;66.86
63281;BME280;49406;51.044;3.766;2022-09-27T12:25:15;100081.94;;;13.79;67.61
63281;BME280;49406;51.044;3.766;2022-09-27T12:27:55;100081.93;;;13.68;68.04
63281;BME280;49406;51.044;3.766;2022-09-27T12:30:31;100075.48;;;13.55;69.40
63281;BME280;49406;51.044;3.766;2022-09-27T12:33:12;100076.34;;;13.45;70.52
63281;BME280;49406;51.044;3.766;2022-09-27T12:35:53;100070.98;;;13.51;70.32
63281;BME280;49406;51.044;3.766;2022-09-27T12:38:38;100074.73;;;13.58;69.99
63281;BME280;49406;51.044;3.766;2022-09-27T12:41:18;100070.48;;;13.50;70.28
63281;BME280;49406;51.044;3.766;2022-09-27T12:43:54;100076.55;;;13.42;71.02
63281;BME280;49406;51.044;3.766;2022-09-27T12:46:38;100071.61;;;13.33;74.46
63281;BME280;49406;51.044;3.766;2022-09-27T12:49:22;100071.72;;;13.25;76.31
63281;BME280;49406;51.044;3.766;2022-09-27T12:52:02;100065.08;;;12.98;78.82
63281;BME280;49406;51.044;3.766;2022-09-27T12:57:44;100065.16;;;12.91;82.19
63281;BME280;49406;51.044;3.766;2022-09-27T13:00:20;100060.95;;;12.78;80.78
63281;BME280;49406;51.044;3.766;2022-09-27T13:03:24;100055.31;;;12.67;81.00
63281;BME280;49406;51.044;3.766;2022-09-27T13:06:36;100047.64;;;12.64;78.85
63281;BME280;49406;51.044;3.766;2022-09-27T13:09:36;100049.98;;;12.72;76.12
63281;BME280;49406;51.044;3.766;2022-09-27T13:12:21;100054.92;;;12.84;72.93
63281;BME280;49406;51.044;3.766;2022-09-27T13:15:00;100053.60;;;12.90;70.50
63281;BME280;49406;51.044;3.766;2022-09-27T13:17:50;100053.71;;;12.95;70.27
63281;BME280;49406;51.044;3.766;2022-09-27T13:26:51;100048.20;;;12.74;70.66
63281;BME280;49406;51.044;3.766;2022-09-27T13:29:30;100042.66;;;12.95;71.92
63281;BME280;49406;51.044;3.766;2022-09-27T13:32:18;100039.66;;;13.07;70.68
63281;BME280;49406;51.044;3.766;2022-09-27T13:34:54;100035.21;;;13.00;70.60
63281;BME280;49406;51.044;3.766;2022-09-27T13:37:53;100036.27;;;13.01;73.36
63281;BME280;49406;51.044;3.766;2022-09-27T13:40:32;100038.26;;;13.08;75.65
63281;BME280;49406;51.044;3.766;2022-09-27T13:46:23;100036.73;;;13.16;77.26
63281;BME280;49406;51.044;3.766;2022-09-27T13:49:03;100029.67;;;13.20;76.72
63281;BME280;49406;51.044;3.766;2022-09-27T13:51:44;100029.16;;;13.19;78.47
63281;BME280;49406;51.044;3.766;2022-09-27T13:54:49;100030.36;;;13.33;78.83
63281;BME280;49406;51.044;3.766;2022-09-27T13:57:51;100028.91;;;13.24;79.03
63281;BME280;49406;51.044;3.766;2022-09-27T14:00:31;100031.21;;;13.10;80.18
63281;BME280;49406;51.044;3.766;2022-09-27T14:03:16;100033.98;;;13.01;79.20
63281;BME280;49406;51.044;3.766;2022-09-27T14:05:57;100035.56;;;12.87;78.94
63281;BME280;49406;51.044;3.766;2022-09-27T14:08:36;100038.17;;;12.77;80.26
63281;BME280;49406;51.044;3.766;2022-09-27T14:11:14;100031.66;;;12.52;83.22
63281;BME280;49406;51.044;3.766;2022-09-27T14:13:53;100037.50;;;12.17;87.01
63281;BME280;49406;51.044;3.766;2022-09-27T14:16:31;100041.23;;;11.98;87.66